sensor_id;sensor_type;location;lat;lon;timestamp;P1;durP1;ratioP1;P2;durP2;ratioP2
48647;SDS011;34437;-33.956;151.076;2023-04-24T00:00:04;10.80;;;4.13;;
48647;SDS011;34437;-33.956;151.076;2023-04-24T00:02:27;16.83;;;3.22;;
48647;SDS011;34437;-33.956;151.076;2023-04-24T00:04:49;7.47;;;3.30;;
48647;SDS011;34437;-33.956;151.076;2023-04-24T00:07:12;13.05;;;3.95;;
48647;SDS011;34437;-33.956;151.076;2023-04-24T00:09:35;14.90;;;3.95;;
48647;SDS011;34437;-33.956;151.076;2023-04-24T00:11:57;11.35;;;3.90;;
48647;SDS011;34437;-33.956;151.076;2023-04-24T00:14:20;12.98;;;4.10;;
48647;SDS011;34437;-33.956;151.076;2023-04-24T00:16:42;7.75;;;3.55;;
48647;SDS011;34437;-33.956;151.076;2023-04-24T00:19:05;12.52;;;3.65;;
48647;SDS011;34437;-33.956;151.076;2023-04-24T00:21:28;19.00;;;4.47;;
48647;SDS011;34437;-33.956;151.076;2023-04-24T00:23:50;51.08;;;6.03;;
48647;SDS011;34437;-33.956;151.076;2023-04-24T00:26:13;20.53;;;4.17;;
48647;SDS011;34437;-33.956;151.076;2023-04-24T00:28:36;22.77;;;4.82;;
48647;SDS011;34437;-33.956;151.076;2023-04-24T00:30:58;19.90;;;3.75;;
48647;SDS011;34437;-33.956;151.076;2023-04-24T00:33:21;16.73;;;4.53;;
48647;SDS011;34437;-33.956;151.076;2023-04-24T00:35:43;22.15;;;3.95;;
48647;SDS011;34437;-33.956;151.076;2023-04-24T00:38:06;12.25;;;3.88;;
48647;SDS011;34437;-33.956;151.076;2023-04-24T00:40:28;13.20;;;3.67;;
48647;SDS011;34437;-33.956;151.076;2023-04-24T00:42:51;18.80;;;4.32;;
48647;SDS011;34437;-33.956;151.076;2023-04-24T00:45:13;13.90;;;3.35;;
48647;SDS011;34437;-33.956;151.076;2023-04-24T00:47:36;12.70;;;3.75;;
48647;SDS011;34437;-33.956;151.076;2023-04-24T00:50:03;14.13;;;3.42;;
48647;SDS011;34437;-33.956;151.076;2023-04-24T00:52:27;14.55;;;3.40;;
48647;SDS011;34437;-33.956;151.076;2023-04-24T00:54:51;8.93;;;3.00;;
48647;SDS011;34437;-33.956;151.076;2023-04-24T00:57:14;11.30;;;3.22;;
48647;SDS011;34437;-33.956;151.076;2023-04-24T00:59:36;8.65;;;3.28;;
48647;SDS011;34437;-33.956;151.076;2023-04-24T01:02:01;8.50;;;2.83;;
48647;SDS011;34437;-33.956;151.076;2023-04-24T01:04:24;10.80;;;2.70;;
48647;SDS011;34437;-33.956;151.076;2023-04-24T01:06:47;12.50;;;3.10;;
48647;SDS011;34437;-33.956;151.076;2023-04-24T01:09:11;9.10;;;3.20;;
48647;SDS011;34437;-33.956;151.076;2023-04-24T01:11:35;10.63;;;3.15;;
48647;SDS011;34437;-33.956;151.076;2023-04-24T01:13:58;9.52;;;3.03;;
48647;SDS011;34437;-33.956;151.076;2023-04-24T01:16:22;8.13;;;2.50;;
48647;SDS011;34437;-33.956;151.076;2023-04-24T01:18:45;7.63;;;2.55;;
48647;SDS011;34437;-33.956;151.076;2023-04-24T01:21:07;7.68;;;2.33;;
48647;SDS011;34437;-33.956;151.076;2023-04-24T01:23:34;6.68;;;2.83;;
48647;SDS011;34437;-33.956;151.076;2023-04-24T01:25:56;6.75;;;2.22;;
48647;SDS011;34437;-33.956;151.076;2023-04-24T01:28:19;7.50;;;2.58;;
48647;SDS011;34437;-33.956;151.076;2023-04-24T01:30:42;16.98;;;3.40;;
48647;SDS011;34437;-33.956;151.076;2023-04-24T01:33:04;5.15;;;2.03;;
48647;SDS011;34437;-33.956;151.076;2023-04-24T01:35:27;8.60;;;2.38;;
48647;SDS011;34437;-33.956;151.076;2023-04-24T01:37:50;6.53;;;2.80;;
48647;SDS011;34437;-33.956;151.076;2023-04-24T01:40:12;6.35;;;2.22;;
48647;SDS011;34437;-33.956;151.076;2023-04-24T01:42:34;6.00;;;2.45;;
48647;SDS011;34437;-33.956;151.076;2023-04-24T01:44:57;5.63;;;2.08;;
48647;SDS011;34437;-33.956;151.076;2023-04-24T01:47:20;5.15;;;2.17;;
48647;SDS011;34437;-33.956;151.076;2023-04-24T01:49:43;9.38;;;2.30;;
48647;SDS011;34437;-33.956;151.076;2023-04-24T01:54:28;8.18;;;2.22;;
48647;SDS011;34437;-33.956;151.076;2023-04-24T01:56:51;5.55;;;2.53;;
48647;SDS011;34437;-33.956;151.076;2023-04-24T01:59:13;4.97;;;2.05;;
48647;SDS011;34437;-33.956;151.076;2023-04-24T02:01:38;7.10;;;1.80;;
48647;SDS011;34437;-33.956;151.076;2023-04-24T02:04:01;4.47;;;1.88;;
48647;SDS011;34437;-33.956;151.076;2023-04-24T02:06:23;4.43;;;1.80;;
48647;SDS011;34437;-33.956;151.076;2023-04-24T02:08:46;7.28;;;1.90;;
48647;SDS011;34437;-33.956;151.076;2023-04-24T02:11:08;5.03;;;2.17;;
48647;SDS011;34437;-33.956;151.076;2023-04-24T02:13:31;8.97;;;1.50;;
48647;SDS011;34437;-33.956;151.076;2023-04-24T02:15:53;7.10;;;1.75;;
48647;SDS011;34437;-33.956;151.076;2023-04-24T02:18:16;7.50;;;2.00;;
48647;SDS011;34437;-33.956;151.076;2023-04-24T02:20:38;6.60;;;2.42;;
48647;SDS011;34437;-33.956;151.076;2023-04-24T02:23:01;7.03;;;1.83;;
48647;SDS011;34437;-33.956;151.076;2023-04-24T02:25:23;5.03;;;2.78;;
48647;SDS011;34437;-33.956;151.076;2023-04-24T02:27:46;3.38;;;1.88;;
48647;SDS011;34437;-33.956;151.076;2023-04-24T02:30:09;4.55;;;1.80;;
48647;SDS011;34437;-33.956;151.076;2023-04-24T02:32:32;4.07;;;1.80;;
48647;SDS011;34437;-33.956;151.076;2023-04-24T02:34:55;5.03;;;1.80;;
48647;SDS011;34437;-33.956;151.076;2023-04-24T02:37:17;6.15;;;1.98;;
48647;SDS011;34437;-33.956;151.076;2023-04-24T02:39:40;7.45;;;1.70;;
48647;SDS011;34437;-33.956;151.076;2023-04-24T02:42:02;4.88;;;1.65;;
48647;SDS011;34437;-33.956;151.076;2023-04-24T02:44:24;7.47;;;2.05;;
48647;SDS011;34437;-33.956;151.076;2023-04-24T02:46:47;4.25;;;1.70;;
48647;SDS011;34437;-33.956;151.076;2023-04-24T02:49:09;7.30;;;1.90;;
48647;SDS011;34437;-33.956;151.076;2023-04-24T02:51:33;8.45;;;2.13;;
48647;SDS011;34437;-33.956;151.076;2023-04-24T02:53:55;8.25;;;2.28;;
48647;SDS011;34437;-33.956;151.076;2023-04-24T02:56:18;5.93;;;1.88;;
48647;SDS011;34437;-33.956;151.076;2023-04-24T02:58:40;5.63;;;2.08;;
48647;SDS011;34437;-33.956;151.076;2023-04-24T03:01:03;8.27;;;2.08;;
48647;SDS011;34437;-33.956;151.076;2023-04-24T03:03:26;5.47;;;2.22;;
48647;SDS011;34437;-33.956;151.076;2023-04-24T03:05:48;5.95;;;1.90;;
48647;SDS011;34437;-33.956;151.076;2023-04-24T03:08:11;9.20;;;2.63;;
48647;SDS011;34437;-33.956;151.076;2023-04-24T03:10:33;4.43;;;1.85;;
48647;SDS011;34437;-33.956;151.076;2023-04-24T03:12:55;4.50;;;2.00;;
48647;SDS011;34437;-33.956;151.076;2023-04-24T03:15:18;3.45;;;1.75;;
48647;SDS011;34437;-33.956;151.076;2023-04-24T03:17:40;5.32;;;1.85;;
48647;SDS011;34437;-33.956;151.076;2023-04-24T03:20:03;4.78;;;1.80;;
48647;SDS011;34437;-33.956;151.076;2023-04-24T03:22:29;5.70;;;1.92;;
48647;SDS011;34437;-33.956;151.076;2023-04-24T03:24:53;9.00;;;2.00;;
48647;SDS011;34437;-33.956;151.076;2023-04-24T03:27:16;4.28;;;2.05;;
48647;SDS011;34437;-33.956;151.076;2023-04-24T03:29:38;6.20;;;1.88;;
48647;SDS011;34437;-33.956;151.076;2023-04-24T03:32:01;6.30;;;1.80;;
48647;SDS011;34437;-33.956;151.076;2023-04-24T03:34:23;6.65;;;2.10;;
48647;SDS011;34437;-33.956;151.076;2023-04-24T03:36:45;4.75;;;1.92;;
48647;SDS011;34437;-33.956;151.076;2023-04-24T03:39:08;3.65;;;1.73;;
48647;SDS011;34437;-33.956;151.076;2023-04-24T03:41:31;4.15;;;1.90;;
48647;SDS011;34437;-33.956;151.076;2023-04-24T03:43:53;5.53;;;1.95;;
48647;SDS011;34437;-33.956;151.076;2023-04-24T03:46:15;6.25;;;1.95;;
48647;SDS011;34437;-33.956;151.076;2023-04-24T03:48:38;5.43;;;1.90;;
48647;SDS011;34437;-33.956;151.076;2023-04-24T03:51:00;3.38;;;1.50;;
48647;SDS011;34437;-33.956;151.076;2023-04-24T03:53:23;7.35;;;1.65;;
48647;SDS011;34437;-33.956;151.076;2023-04-24T03:55:45;6.03;;;2.10;;
48647;SDS011;34437;-33.956;151.076;2023-04-24T03:58:08;3.20;;;1.60;;
48647;SDS011;34437;-33.956;151.076;2023-04-24T04:00:31;4.10;;;1.90;;
48647;SDS011;34437;-33.956;151.076;2023-04-24T04:02:55;4.18;;;1.88;;
48647;SDS011;34437;-33.956;151.076;2023-04-24T04:05:17;4.97;;;1.75;;
48647;SDS011;34437;-33.956;151.076;2023-04-24T04:07:40;6.55;;;2.00;;
48647;SDS011;34437;-33.956;151.076;2023-04-24T04:10:02;4.40;;;1.50;;
48647;SDS011;34437;-33.956;151.076;2023-04-24T04:12:25;3.30;;;1.40;;
48647;SDS011;34437;-33.956;151.076;2023-04-24T04:14:48;6.07;;;1.90;;
48647;SDS011;34437;-33.956;151.076;2023-04-24T04:17:10;4.82;;;1.60;;
48647;SDS011;34437;-33.956;151.076;2023-04-24T04:19:32;2.83;;;1.52;;
48647;SDS011;34437;-33.956;151.076;2023-04-24T04:21:55;5.90;;;1.52;;
48647;SDS011;34437;-33.956;151.076;2023-04-24T04:24:18;5.03;;;1.80;;
48647;SDS011;34437;-33.956;151.076;2023-04-24T04:26:44;4.72;;;1.98;;
48647;SDS011;34437;-33.956;151.076;2023-04-24T04:29:07;4.40;;;1.57;;
48647;SDS011;34437;-33.956;151.076;2023-04-24T04:31:31;3.58;;;1.38;;
48647;SDS011;34437;-33.956;151.076;2023-04-24T04:33:53;5.30;;;1.88;;
48647;SDS011;34437;-33.956;151.076;2023-04-24T04:36:15;3.92;;;1.50;;
48647;SDS011;34437;-33.956;151.076;2023-04-24T04:38:38;4.63;;;1.73;;
48647;SDS011;34437;-33.956;151.076;2023-04-24T04:41:01;4.90;;;1.60;;
48647;SDS011;34437;-33.956;151.076;2023-04-24T04:43:24;5.88;;;2.03;;
48647;SDS011;34437;-33.956;151.076;2023-04-24T04:45:46;3.15;;;1.50;;
48647;SDS011;34437;-33.956;151.076;2023-04-24T04:48:09;4.45;;;1.77;;
48647;SDS011;34437;-33.956;151.076;2023-04-24T04:50:34;4.55;;;1.50;;
48647;SDS011;34437;-33.956;151.076;2023-04-24T04:52:57;3.13;;;1.40;;
48647;SDS011;34437;-33.956;151.076;2023-04-24T04:55:19;3.72;;;1.58;;
48647;SDS011;34437;-33.956;151.076;2023-04-24T04:57:42;5.50;;;1.95;;
48647;SDS011;34437;-33.956;151.076;2023-04-24T05:00:05;5.53;;;2.00;;
48647;SDS011;34437;-33.956;151.076;2023-04-24T05:02:28;3.40;;;1.50;;
48647;SDS011;34437;-33.956;151.076;2023-04-24T05:04:50;5.43;;;1.75;;
48647;SDS011;34437;-33.956;151.076;2023-04-24T05:07:13;3.00;;;1.50;;
48647;SDS011;34437;-33.956;151.076;2023-04-24T05:09:35;5.35;;;2.03;;
48647;SDS011;34437;-33.956;151.076;2023-04-24T05:11:58;5.95;;;1.90;;
48647;SDS011;34437;-33.956;151.076;2023-04-24T05:14:21;6.55;;;2.35;;
48647;SDS011;34437;-33.956;151.076;2023-04-24T05:16:43;6.13;;;2.10;;
48647;SDS011;34437;-33.956;151.076;2023-04-24T05:19:06;5.63;;;2.03;;
48647;SDS011;34437;-33.956;151.076;2023-04-24T05:21:28;5.70;;;1.83;;
48647;SDS011;34437;-33.956;151.076;2023-04-24T05:23:51;5.63;;;2.40;;
48647;SDS011;34437;-33.956;151.076;2023-04-24T05:26:13;7.18;;;2.30;;
48647;SDS011;34437;-33.956;151.076;2023-04-24T05:28:36;4.95;;;2.05;;
48647;SDS011;34437;-33.956;151.076;2023-04-24T05:30:58;4.28;;;1.85;;
48647;SDS011;34437;-33.956;151.076;2023-04-24T05:33:21;5.72;;;1.77;;
48647;SDS011;34437;-33.956;151.076;2023-04-24T05:35:44;4.25;;;2.08;;
48647;SDS011;34437;-33.956;151.076;2023-04-24T05:38:07;6.28;;;1.92;;
48647;SDS011;34437;-33.956;151.076;2023-04-24T05:40:29;5.13;;;2.10;;
48647;SDS011;34437;-33.956;151.076;2023-04-24T05:42:52;4.65;;;2.05;;
48647;SDS011;34437;-33.956;151.076;2023-04-24T05:45:14;6.25;;;2.10;;
48647;SDS011;34437;-33.956;151.076;2023-04-24T05:47:37;6.25;;;1.90;;
48647;SDS011;34437;-33.956;151.076;2023-04-24T05:49:59;5.05;;;1.83;;
48647;SDS011;34437;-33.956;151.076;2023-04-24T05:52:22;5.65;;;2.20;;
48647;SDS011;34437;-33.956;151.076;2023-04-24T05:54:44;5.30;;;2.00;;
48647;SDS011;34437;-33.956;151.076;2023-04-24T05:57:07;7.22;;;2.53;;
48647;SDS011;34437;-33.956;151.076;2023-04-24T05:59:29;7.95;;;2.42;;
48647;SDS011;34437;-33.956;151.076;2023-04-24T06:01:52;6.32;;;2.40;;
48647;SDS011;34437;-33.956;151.076;2023-04-24T06:04:14;7.28;;;2.22;;
48647;SDS011;34437;-33.956;151.076;2023-04-24T06:06:36;6.43;;;1.98;;
48647;SDS011;34437;-33.956;151.076;2023-04-24T06:08:59;6.13;;;2.00;;
48647;SDS011;34437;-33.956;151.076;2023-04-24T06:11:21;9.13;;;2.60;;
48647;SDS011;34437;-33.956;151.076;2023-04-24T06:13:43;8.88;;;2.47;;
48647;SDS011;34437;-33.956;151.076;2023-04-24T06:16:06;9.00;;;2.40;;
48647;SDS011;34437;-33.956;151.076;2023-04-24T06:18:28;7.60;;;2.42;;
48647;SDS011;34437;-33.956;151.076;2023-04-24T06:20:51;8.75;;;2.10;;
48647;SDS011;34437;-33.956;151.076;2023-04-24T06:23:13;9.50;;;2.42;;
48647;SDS011;34437;-33.956;151.076;2023-04-24T06:25:36;6.47;;;1.83;;
48647;SDS011;34437;-33.956;151.076;2023-04-24T06:27:59;7.90;;;2.73;;
48647;SDS011;34437;-33.956;151.076;2023-04-24T06:30:22;7.82;;;2.40;;
48647;SDS011;34437;-33.956;151.076;2023-04-24T06:32:45;6.93;;;1.90;;
48647;SDS011;34437;-33.956;151.076;2023-04-24T06:35:07;9.40;;;2.45;;
48647;SDS011;34437;-33.956;151.076;2023-04-24T06:37:30;8.30;;;2.47;;
48647;SDS011;34437;-33.956;151.076;2023-04-24T06:39:53;8.15;;;1.83;;
48647;SDS011;34437;-33.956;151.076;2023-04-24T06:42:15;11.43;;;2.47;;
48647;SDS011;34437;-33.956;151.076;2023-04-24T06:44:37;13.40;;;3.42;;
48647;SDS011;34437;-33.956;151.076;2023-04-24T06:47:03;15.00;;;3.03;;
48647;SDS011;34437;-33.956;151.076;2023-04-24T06:49:26;9.23;;;2.75;;
48647;SDS011;34437;-33.956;151.076;2023-04-24T06:51:48;13.23;;;2.35;;
48647;SDS011;34437;-33.956;151.076;2023-04-24T06:54:10;15.40;;;2.67;;
48647;SDS011;34437;-33.956;151.076;2023-04-24T06:56:33;14.15;;;2.80;;
48647;SDS011;34437;-33.956;151.076;2023-04-24T06:58:56;23.75;;;3.10;;
48647;SDS011;34437;-33.956;151.076;2023-04-24T07:01:18;12.80;;;2.60;;
48647;SDS011;34437;-33.956;151.076;2023-04-24T07:03:41;9.85;;;2.45;;
48647;SDS011;34437;-33.956;151.076;2023-04-24T07:06:04;9.68;;;3.17;;
48647;SDS011;34437;-33.956;151.076;2023-04-24T07:08:26;9.93;;;2.58;;
48647;SDS011;34437;-33.956;151.076;2023-04-24T07:10:51;9.35;;;2.70;;
48647;SDS011;34437;-33.956;151.076;2023-04-24T07:13:13;10.00;;;2.85;;
48647;SDS011;34437;-33.956;151.076;2023-04-24T07:15:36;13.82;;;3.72;;
48647;SDS011;34437;-33.956;151.076;2023-04-24T07:17:58;11.35;;;2.92;;
48647;SDS011;34437;-33.956;151.076;2023-04-24T07:20:21;9.75;;;3.03;;
48647;SDS011;34437;-33.956;151.076;2023-04-24T07:22:43;12.07;;;3.00;;
48647;SDS011;34437;-33.956;151.076;2023-04-24T07:25:06;11.73;;;2.90;;
48647;SDS011;34437;-33.956;151.076;2023-04-24T07:27:29;11.60;;;2.70;;
48647;SDS011;34437;-33.956;151.076;2023-04-24T07:29:52;22.80;;;2.88;;
48647;SDS011;34437;-33.956;151.076;2023-04-24T07:32:14;11.73;;;3.35;;
48647;SDS011;34437;-33.956;151.076;2023-04-24T07:34:37;8.82;;;3.00;;
48647;SDS011;34437;-33.956;151.076;2023-04-24T07:36:59;13.07;;;3.15;;
48647;SDS011;34437;-33.956;151.076;2023-04-24T07:39:23;11.07;;;2.72;;
48647;SDS011;34437;-33.956;151.076;2023-04-24T07:41:45;12.45;;;3.10;;
48647;SDS011;34437;-33.956;151.076;2023-04-24T07:44:07;11.48;;;2.92;;
48647;SDS011;34437;-33.956;151.076;2023-04-24T07:46:30;9.07;;;2.67;;
48647;SDS011;34437;-33.956;151.076;2023-04-24T07:48:53;8.93;;;2.53;;
48647;SDS011;34437;-33.956;151.076;2023-04-24T07:51:15;8.45;;;2.88;;
48647;SDS011;34437;-33.956;151.076;2023-04-24T07:53:40;9.80;;;2.67;;
48647;SDS011;34437;-33.956;151.076;2023-04-24T07:56:04;7.97;;;2.92;;
48647;SDS011;34437;-33.956;151.076;2023-04-24T07:58:26;9.15;;;3.00;;
48647;SDS011;34437;-33.956;151.076;2023-04-24T08:00:49;9.65;;;3.50;;
48647;SDS011;34437;-33.956;151.076;2023-04-24T08:03:11;10.52;;;3.30;;
48647;SDS011;34437;-33.956;151.076;2023-04-24T08:05:33;7.72;;;2.63;;
48647;SDS011;34437;-33.956;151.076;2023-04-24T08:07:56;7.93;;;2.92;;
48647;SDS011;34437;-33.956;151.076;2023-04-24T08:10:18;9.40;;;2.72;;
48647;SDS011;34437;-33.956;151.076;2023-04-24T08:12:41;10.75;;;2.83;;
48647;SDS011;34437;-33.956;151.076;2023-04-24T08:15:04;8.63;;;2.63;;
48647;SDS011;34437;-33.956;151.076;2023-04-24T08:17:27;8.38;;;3.10;;
48647;SDS011;34437;-33.956;151.076;2023-04-24T08:19:50;8.18;;;2.38;;
48647;SDS011;34437;-33.956;151.076;2023-04-24T08:22:14;6.75;;;2.85;;
48647;SDS011;34437;-33.956;151.076;2023-04-24T08:24:37;5.38;;;1.98;;
48647;SDS011;34437;-33.956;151.076;2023-04-24T08:26:59;14.15;;;2.88;;
48647;SDS011;34437;-33.956;151.076;2023-04-24T08:29:22;15.85;;;3.50;;
48647;SDS011;34437;-33.956;151.076;2023-04-24T08:31:44;7.63;;;2.42;;
48647;SDS011;34437;-33.956;151.076;2023-04-24T08:34:07;8.10;;;2.20;;
48647;SDS011;34437;-33.956;151.076;2023-04-24T08:36:30;8.70;;;2.25;;
48647;SDS011;34437;-33.956;151.076;2023-04-24T08:38:54;8.15;;;2.75;;
48647;SDS011;34437;-33.956;151.076;2023-04-24T08:41:16;10.68;;;2.53;;
48647;SDS011;34437;-33.956;151.076;2023-04-24T08:46:03;10.40;;;2.60;;
48647;SDS011;34437;-33.956;151.076;2023-04-24T08:50:51;9.35;;;3.33;;
48647;SDS011;34437;-33.956;151.076;2023-04-24T08:53:14;8.02;;;2.78;;
48647;SDS011;34437;-33.956;151.076;2023-04-24T08:55:40;17.17;;;3.50;;
48647;SDS011;34437;-33.956;151.076;2023-04-24T08:58:04;8.27;;;2.83;;
48647;SDS011;34437;-33.956;151.076;2023-04-24T09:00:27;7.05;;;3.05;;
48647;SDS011;34437;-33.956;151.076;2023-04-24T09:02:51;7.03;;;2.47;;
48647;SDS011;34437;-33.956;151.076;2023-04-24T09:05:16;8.38;;;2.92;;
48647;SDS011;34437;-33.956;151.076;2023-04-24T09:07:39;6.55;;;2.60;;
48647;SDS011;34437;-33.956;151.076;2023-04-24T09:10:06;10.65;;;2.92;;
48647;SDS011;34437;-33.956;151.076;2023-04-24T09:12:29;8.43;;;2.90;;
48647;SDS011;34437;-33.956;151.076;2023-04-24T09:14:51;10.43;;;3.20;;
48647;SDS011;34437;-33.956;151.076;2023-04-24T09:17:15;8.07;;;2.80;;
48647;SDS011;34437;-33.956;151.076;2023-04-24T09:19:38;9.98;;;3.05;;
48647;SDS011;34437;-33.956;151.076;2023-04-24T09:22:04;18.93;;;3.30;;
48647;SDS011;34437;-33.956;151.076;2023-04-24T09:24:27;7.47;;;3.13;;
48647;SDS011;34437;-33.956;151.076;2023-04-24T09:26:58;7.07;;;3.20;;
48647;SDS011;34437;-33.956;151.076;2023-04-24T09:29:24;8.93;;;3.55;;
48647;SDS011;34437;-33.956;151.076;2023-04-24T09:31:47;8.35;;;2.78;;
48647;SDS011;34437;-33.956;151.076;2023-04-24T09:34:09;8.70;;;2.92;;
48647;SDS011;34437;-33.956;151.076;2023-04-24T09:36:42;6.38;;;3.03;;
48647;SDS011;34437;-33.956;151.076;2023-04-24T09:39:05;11.05;;;3.33;;
48647;SDS011;34437;-33.956;151.076;2023-04-24T09:41:32;9.13;;;3.33;;
48647;SDS011;34437;-33.956;151.076;2023-04-24T09:43:55;9.32;;;3.05;;
48647;SDS011;34437;-33.956;151.076;2023-04-24T09:48:42;9.38;;;2.78;;
48647;SDS011;34437;-33.956;151.076;2023-04-24T09:51:05;10.40;;;2.85;;
48647;SDS011;34437;-33.956;151.076;2023-04-24T09:53:31;18.48;;;3.63;;
48647;SDS011;34437;-33.956;151.076;2023-04-24T09:55:53;8.30;;;2.78;;
48647;SDS011;34437;-33.956;151.076;2023-04-24T09:58:16;13.60;;;3.60;;
48647;SDS011;34437;-33.956;151.076;2023-04-24T10:00:38;9.10;;;3.17;;
48647;SDS011;34437;-33.956;151.076;2023-04-24T10:03:02;8.25;;;2.70;;
48647;SDS011;34437;-33.956;151.076;2023-04-24T10:05:30;25.52;;;3.40;;
48647;SDS011;34437;-33.956;151.076;2023-04-24T10:07:56;7.10;;;3.00;;
48647;SDS011;34437;-33.956;151.076;2023-04-24T10:10:20;10.80;;;2.92;;
48647;SDS011;34437;-33.956;151.076;2023-04-24T10:12:43;12.30;;;3.90;;
48647;SDS011;34437;-33.956;151.076;2023-04-24T10:15:06;15.95;;;3.38;;
48647;SDS011;34437;-33.956;151.076;2023-04-24T10:17:33;7.22;;;2.70;;
48647;SDS011;34437;-33.956;151.076;2023-04-24T10:22:19;8.52;;;3.75;;
48647;SDS011;34437;-33.956;151.076;2023-04-24T10:24:42;14.70;;;3.95;;
48647;SDS011;34437;-33.956;151.076;2023-04-24T10:27:06;6.95;;;2.78;;
48647;SDS011;34437;-33.956;151.076;2023-04-24T10:29:30;6.18;;;2.45;;
48647;SDS011;34437;-33.956;151.076;2023-04-24T10:31:53;6.80;;;2.88;;
48647;SDS011;34437;-33.956;151.076;2023-04-24T10:34:16;7.28;;;2.92;;
48647;SDS011;34437;-33.956;151.076;2023-04-24T10:36:43;6.97;;;2.97;;
48647;SDS011;34437;-33.956;151.076;2023-04-24T10:39:11;7.05;;;2.50;;
48647;SDS011;34437;-33.956;151.076;2023-04-24T10:41:38;7.25;;;3.00;;
48647;SDS011;34437;-33.956;151.076;2023-04-24T10:44:10;7.00;;;2.80;;
48647;SDS011;34437;-33.956;151.076;2023-04-24T10:46:34;6.05;;;2.40;;
48647;SDS011;34437;-33.956;151.076;2023-04-24T10:48:57;6.43;;;2.42;;
48647;SDS011;34437;-33.956;151.076;2023-04-24T10:51:21;8.20;;;3.08;;
48647;SDS011;34437;-33.956;151.076;2023-04-24T10:53:44;4.82;;;2.47;;
48647;SDS011;34437;-33.956;151.076;2023-04-24T10:56:08;6.97;;;2.80;;
48647;SDS011;34437;-33.956;151.076;2023-04-24T11:01:07;5.40;;;2.40;;
48647;SDS011;34437;-33.956;151.076;2023-04-24T11:03:31;5.87;;;2.20;;
48647;SDS011;34437;-33.956;151.076;2023-04-24T11:06:05;4.72;;;2.30;;
48647;SDS011;34437;-33.956;151.076;2023-04-24T11:08:46;4.18;;;2.08;;
48647;SDS011;34437;-33.956;151.076;2023-04-24T11:16:20;4.88;;;2.42;;
48647;SDS011;34437;-33.956;151.076;2023-04-24T11:18:49;6.38;;;2.80;;
48647;SDS011;34437;-33.956;151.076;2023-04-24T11:21:18;5.38;;;2.70;;
48647;SDS011;34437;-33.956;151.076;2023-04-24T11:23:41;4.57;;;2.60;;
48647;SDS011;34437;-33.956;151.076;2023-04-24T11:29:06;4.35;;;2.30;;
48647;SDS011;34437;-33.956;151.076;2023-04-24T11:31:36;4.47;;;2.30;;
48647;SDS011;34437;-33.956;151.076;2023-04-24T11:34:08;5.57;;;2.05;;
48647;SDS011;34437;-33.956;151.076;2023-04-24T11:36:33;4.47;;;2.00;;
48647;SDS011;34437;-33.956;151.076;2023-04-24T11:38:56;4.93;;;2.30;;
48647;SDS011;34437;-33.956;151.076;2023-04-24T11:41:19;4.73;;;2.33;;
48647;SDS011;34437;-33.956;151.076;2023-04-24T11:43:43;3.90;;;2.10;;
48647;SDS011;34437;-33.956;151.076;2023-04-24T11:46:06;4.90;;;2.35;;
48647;SDS011;34437;-33.956;151.076;2023-04-24T11:48:29;5.03;;;2.10;;
48647;SDS011;34437;-33.956;151.076;2023-04-24T11:50:57;5.35;;;2.20;;
48647;SDS011;34437;-33.956;151.076;2023-04-24T11:53:22;4.95;;;2.20;;
48647;SDS011;34437;-33.956;151.076;2023-04-24T11:55:45;4.65;;;2.45;;
48647;SDS011;34437;-33.956;151.076;2023-04-24T11:58:07;5.25;;;2.65;;
48647;SDS011;34437;-33.956;151.076;2023-04-24T12:00:31;5.65;;;2.40;;
48647;SDS011;34437;-33.956;151.076;2023-04-24T12:03:30;6.80;;;2.58;;
48647;SDS011;34437;-33.956;151.076;2023-04-24T12:05:45;4.82;;;2.28;;
48647;SDS011;34437;-33.956;151.076;2023-04-24T12:08:08;3.75;;;2.00;;
48647;SDS011;34437;-33.956;151.076;2023-04-24T12:10:31;5.78;;;2.33;;
48647;SDS011;34437;-33.956;151.076;2023-04-24T12:12:56;6.53;;;2.47;;
48647;SDS011;34437;-33.956;151.076;2023-04-24T12:15:19;7.70;;;2.33;;
48647;SDS011;34437;-33.956;151.076;2023-04-24T12:17:42;7.38;;;2.47;;
48647;SDS011;34437;-33.956;151.076;2023-04-24T12:20:06;5.95;;;2.42;;
48647;SDS011;34437;-33.956;151.076;2023-04-24T12:25:09;9.05;;;3.13;;
48647;SDS011;34437;-33.956;151.076;2023-04-24T12:27:32;8.00;;;2.63;;
48647;SDS011;34437;-33.956;151.076;2023-04-24T12:29:55;8.95;;;2.92;;
48647;SDS011;34437;-33.956;151.076;2023-04-24T12:32:18;10.10;;;2.95;;
48647;SDS011;34437;-33.956;151.076;2023-04-24T12:34:41;6.53;;;2.72;;
48647;SDS011;34437;-33.956;151.076;2023-04-24T12:37:11;5.80;;;2.33;;
48647;SDS011;34437;-33.956;151.076;2023-04-24T12:39:34;5.38;;;2.50;;
48647;SDS011;34437;-33.956;151.076;2023-04-24T12:41:56;4.68;;;2.28;;
48647;SDS011;34437;-33.956;151.076;2023-04-24T12:44:20;7.68;;;3.28;;
48647;SDS011;34437;-33.956;151.076;2023-04-24T12:46:55;9.35;;;2.53;;
48647;SDS011;34437;-33.956;151.076;2023-04-24T12:49:17;8.30;;;2.63;;
48647;SDS011;34437;-33.956;151.076;2023-04-24T12:51:40;6.85;;;2.60;;
48647;SDS011;34437;-33.956;151.076;2023-04-24T12:54:03;5.72;;;2.40;;
48647;SDS011;34437;-33.956;151.076;2023-04-24T12:56:25;5.65;;;2.42;;
48647;SDS011;34437;-33.956;151.076;2023-04-24T12:58:47;7.53;;;2.63;;
48647;SDS011;34437;-33.956;151.076;2023-04-24T13:01:12;7.57;;;2.40;;
48647;SDS011;34437;-33.956;151.076;2023-04-24T13:03:35;5.35;;;2.25;;
48647;SDS011;34437;-33.956;151.076;2023-04-24T13:05:57;9.03;;;2.33;;
48647;SDS011;34437;-33.956;151.076;2023-04-24T13:08:20;6.32;;;2.47;;
48647;SDS011;34437;-33.956;151.076;2023-04-24T13:10:42;7.22;;;2.83;;
48647;SDS011;34437;-33.956;151.076;2023-04-24T13:13:05;4.65;;;2.50;;
48647;SDS011;34437;-33.956;151.076;2023-04-24T13:15:28;8.93;;;2.30;;
48647;SDS011;34437;-33.956;151.076;2023-04-24T13:17:50;7.88;;;2.40;;
48647;SDS011;34437;-33.956;151.076;2023-04-24T13:20:13;6.80;;;2.65;;
48647;SDS011;34437;-33.956;151.076;2023-04-24T13:22:35;6.63;;;2.50;;
48647;SDS011;34437;-33.956;151.076;2023-04-24T13:24:58;7.07;;;3.03;;
48647;SDS011;34437;-33.956;151.076;2023-04-24T13:27:22;6.07;;;2.60;;
48647;SDS011;34437;-33.956;151.076;2023-04-24T13:29:44;5.75;;;2.75;;
48647;SDS011;34437;-33.956;151.076;2023-04-24T13:32:08;4.90;;;2.45;;
48647;SDS011;34437;-33.956;151.076;2023-04-24T13:34:31;15.38;;;3.05;;
48647;SDS011;34437;-33.956;151.076;2023-04-24T13:36:55;16.00;;;2.83;;
48647;SDS011;34437;-33.956;151.076;2023-04-24T13:41:41;22.52;;;4.53;;
48647;SDS011;34437;-33.956;151.076;2023-04-24T13:44:04;18.25;;;3.63;;
48647;SDS011;34437;-33.956;151.076;2023-04-24T13:46:27;15.52;;;3.60;;
48647;SDS011;34437;-33.956;151.076;2023-04-24T13:48:49;16.40;;;3.95;;
48647;SDS011;34437;-33.956;151.076;2023-04-24T13:51:13;10.52;;;2.70;;
48647;SDS011;34437;-33.956;151.076;2023-04-24T13:53:36;13.35;;;3.35;;
48647;SDS011;34437;-33.956;151.076;2023-04-24T13:55:59;13.77;;;3.25;;
48647;SDS011;34437;-33.956;151.076;2023-04-24T13:58:22;8.55;;;2.80;;
48647;SDS011;34437;-33.956;151.076;2023-04-24T14:00:44;11.68;;;3.92;;
48647;SDS011;34437;-33.956;151.076;2023-04-24T14:03:06;12.35;;;3.20;;
48647;SDS011;34437;-33.956;151.076;2023-04-24T14:05:29;8.13;;;2.88;;
48647;SDS011;34437;-33.956;151.076;2023-04-24T14:07:51;9.48;;;2.97;;
48647;SDS011;34437;-33.956;151.076;2023-04-24T14:10:14;7.22;;;2.67;;